Map

Track Data

SID SEASON NUMBER BASIN SUBBASIN NAME ISO_TIME NATURE LAT LON WMO_WIND WMO_PRES WMO_AGENCY TRACK_TYPE DIST2LAND LANDFALL IFLAG USA_AGENCY USA_ATCF_ID USA_LAT USA_LON USA_RECORD USA_STATUS USA_WIND USA_PRES USA_SSHS USA_R34_NE USA_R34_SE USA_R34_SW USA_R34_NW USA_R50_NE USA_R50_SE USA_R50_SW USA_R50_NW USA_R64_NE USA_R64_SE USA_R64_SW USA_R64_NW USA_POCI USA_ROCI USA_RMW USA_EYE TOKYO_LAT TOKYO_LON TOKYO_GRADE TOKYO_WIND TOKYO_PRES TOKYO_R50_DIR TOKYO_R50_LONG TOKYO_R50_SHORT TOKYO_R30_DIR TOKYO_R30_LONG TOKYO_R30_SHORT TOKYO_LAND CMA_LAT CMA_LON CMA_CAT CMA_WIND CMA_PRES HKO_LAT HKO_LON HKO_CAT HKO_WIND HKO_PRES NEWDELHI_LAT NEWDELHI_LON NEWDELHI_GRADE NEWDELHI_WIND NEWDELHI_PRES NEWDELHI_CI NEWDELHI_DP NEWDELHI_POCI REUNION_LAT REUNION_LON REUNION_TYPE REUNION_WIND REUNION_PRES REUNION_TNUM REUNION_CI REUNION_RMW REUNION_R34_NE REUNION_R34_SE REUNION_R34_SW REUNION_R34_NW REUNION_R50_NE REUNION_R50_SE REUNION_R50_SW REUNION_R50_NW REUNION_R64_NE REUNION_R64_SE REUNION_R64_SW REUNION_R64_NW BOM_LAT BOM_LON BOM_TYPE BOM_WIND BOM_PRES BOM_TNUM BOM_CI BOM_RMW BOM_R34_NE BOM_R34_SE BOM_R34_SW BOM_R34_NW BOM_R50_NE BOM_R50_SE BOM_R50_SW BOM_R50_NW BOM_R64_NE BOM_R64_SE BOM_R64_SW BOM_R64_NW BOM_ROCI BOM_POCI BOM_EYE BOM_POS_METHOD BOM_PRES_METHOD NADI_LAT NADI_LON NADI_CAT NADI_WIND NADI_PRES WELLINGTON_LAT WELLINGTON_LON WELLINGTON_WIND WELLINGTON_PRES DS824_LAT DS824_LON DS824_STAGE DS824_WIND DS824_PRES TD9636_LAT TD9636_LON TD9636_STAGE TD9636_WIND TD9636_PRES TD9635_LAT TD9635_LON TD9635_WIND TD9635_PRES TD9635_ROCI NEUMANN_LAT NEUMANN_LON NEUMANN_CLASS NEUMANN_WIND NEUMANN_PRES MLC_LAT MLC_LON MLC_CLASS MLC_WIND MLC_PRES USA_GUST BOM_GUST BOM_GUST_PER REUNION_GUST REUNION_GUST_PER USA_SEAHGT USA_SEARAD_NE USA_SEARAD_SE USA_SEARAD_SW USA_SEARAD_NW STORM_SPEED STORM_DIR
1994265N13251 1994 90 EP MM OLIVIA 1994-09-22 06:00:00 TS 12.5000 -108.800 25 1008 hurdat_epa main 862 862 O_____________ hurdat_epa EP171994 12.5000 -108.800 TD 25 1008 -1 8 285
1994265N13251 1994 90 EP MM OLIVIA 1994-09-22 09:00:00 TS 12.6000 -109.182 main 875 875 P_____________ EP171994 12.6000 -109.182 TD 27 1007 -1 8 284
1994265N13251 1994 90 EP MM OLIVIA 1994-09-22 12:00:00 TS 12.7000 -109.600 30 1007 hurdat_epa main 890 890 O_____________ hurdat_epa EP171994 12.7000 -109.600 TD 30 1007 -1 9 283
1994265N13251 1994 90 EP MM OLIVIA 1994-09-22 15:00:00 TS 12.8001 -110.065 main 913 913 P_____________ EP171994 12.8001 -110.065 TD 32 1006 -1 9 283
1994265N13251 1994 90 EP MM OLIVIA 1994-09-22 18:00:00 TS 12.9000 -110.500 35 1005 hurdat_epa main 931 931 O_____________ hurdat_epa EP171994 12.9000 -110.500 TS 35 1005 0 7 284
1994265N13251 1994 90 EP MM OLIVIA 1994-09-22 21:00:00 TS 12.9848 -110.808 main 944 944 P_____________ EP171994 12.9848 -110.808 TS 37 1004 0 6 289
1994265N13251 1994 90 EP MM OLIVIA 1994-09-23 00:00:00 TS 13.1000 -111.100 40 1003 hurdat_epa main 958 957 O_____________ hurdat_epa EP171994 13.1000 -111.100 TS 40 1003 0 7 294
1994265N13251 1994 90 EP MM OLIVIA 1994-09-23 03:00:00 TS 13.2774 -111.470 main 973 972 P_____________ EP171994 13.2774 -111.470 TS 42 1001 0 9 297
1994265N13251 1994 90 EP MM OLIVIA 1994-09-23 06:00:00 TS 13.5000 -111.900 45 1000 hurdat_epa main 987 987 O_____________ hurdat_epa EP171994 13.5000 -111.900 TS 45 1000 0 10 298
1994265N13251 1994 90 EP MM OLIVIA 1994-09-23 09:00:00 TS 13.7575 -112.385 main 1003 1003 P_____________ EP171994 13.7575 -112.385 TS 47 998 0 11 297
1994265N13251 1994 90 EP MM OLIVIA 1994-09-23 12:00:00 TS 14.0000 -112.900 50 997 hurdat_epa main 1029 1029 O_____________ hurdat_epa EP171994 14.0000 -112.900 TS 50 997 0 11 292
1994265N13251 1994 90 EP MM OLIVIA 1994-09-23 15:00:00 TS 14.1649 -113.400 main 1037 1037 P_____________ EP171994 14.1649 -113.400 TS 52 995 0 10 287
1994265N13251 1994 90 EP MM OLIVIA 1994-09-23 18:00:00 TS 14.3000 -113.900 55 994 hurdat_epa main 1046 1044 O_____________ hurdat_epa EP171994 14.3000 -113.900 TS 55 994 0 10 287
1994265N13251 1994 90 EP MM OLIVIA 1994-09-23 21:00:00 TS 14.4574 -114.400 main 1047 1047 P_____________ EP171994 14.4574 -114.400 TS 57 992 0 10 287
1994265N13251 1994 90 EP MM OLIVIA 1994-09-24 00:00:00 TS 14.6000 -114.900 60 991 hurdat_epa main 1061 1061 O_____________ hurdat_epa EP171994 14.6000 -114.900 TS 60 991 0 10 284
1994265N13251 1994 90 EP MM OLIVIA 1994-09-24 03:00:00 TS 14.6999 -115.400 main 1078 1078 P_____________ EP171994 14.6999 -115.400 TS 62 989 0 10 282
1994265N13251 1994 90 EP MM OLIVIA 1994-09-24 06:00:00 TS 14.8000 -115.900 65 987 hurdat_epa main 1098 1098 O_____________ hurdat_epa EP171994 14.8000 -115.900 HU 65 987 1 10 283
1994265N13251 1994 90 EP MM OLIVIA 1994-09-24 09:00:00 TS 14.9275 -116.415 main 1119 1116 P_____________ EP171994 14.9275 -116.415 HU 72 981 1 10 287
1994265N13251 1994 90 EP MM OLIVIA 1994-09-24 12:00:00 TS 15.1000 -116.900 80 975 hurdat_epa main 1134 1132 O_____________ hurdat_epa EP171994 15.1000 -116.900 HU 80 975 1 10 294
1994265N13251 1994 90 EP MM OLIVIA 1994-09-24 15:00:00 TS 15.3198 -117.315 main 1144 1142 P_____________ EP171994 15.3198 -117.315 HU 87 966 2 9 303
1994265N13251 1994 90 EP MM OLIVIA 1994-09-24 18:00:00 TS 15.6000 -117.700 95 958 hurdat_epa main 1148 1147 O_____________ hurdat_epa EP171994 15.6000 -117.700 HU 95 958 2 10 309
1994265N13251 1994 90 EP MM OLIVIA 1994-09-24 21:00:00 TS 15.9275 -118.108 main 1154 1151 P_____________ EP171994 15.9275 -118.108 HU 100 952 3 10 312
1994265N13251 1994 90 EP MM OLIVIA 1994-09-25 00:00:00 TS 16.3000 -118.500 105 946 hurdat_epa main 1151 1133 O_____________ hurdat_epa EP171994 16.3000 -118.500 HU 105 946 3 11 317
1994265N13251 1994 90 EP MM OLIVIA 1994-09-25 03:00:00 TS 16.6999 -118.865 main 1139 1124 P_____________ EP171994 16.6999 -118.865 HU 112 940 3 10 320
1994265N13251 1994 90 EP MM OLIVIA 1994-09-25 06:00:00 TS 17.1000 -119.200 120 935 hurdat_epa main 1124 1120 O_____________ hurdat_epa EP171994 17.1000 -119.200 HU 120 935 4 10 319
1994265N13251 1994 90 EP MM OLIVIA 1994-09-25 09:00:00 TS 17.4425 -119.538 main 1120 1109 P_____________ EP171994 17.4425 -119.538 HU 125 929 4 9 321
1994265N13251 1994 90 EP MM OLIVIA 1994-09-25 12:00:00 TS 17.8000 -119.800 130 923 hurdat_epa main 1109 1085 O_____________ hurdat_epa EP171994 17.8000 -119.800 HU 130 923 4 9 334
1994265N13251 1994 90 EP MM OLIVIA 1994-09-25 15:00:00 TS 18.2424 -119.945 main 1085 1054 P_____________ EP171994 18.2424 -119.945 HU 127 923 4 9 348
1994265N13251 1994 90 EP MM OLIVIA 1994-09-25 18:00:00 TS 18.7000 -120.000 125 924 hurdat_epa main 1054 1025 O_____________ hurdat_epa EP171994 18.7000 -120.000 HU 125 924 4 9 354
1994265N13251 1994 90 EP MM OLIVIA 1994-09-25 21:00:00 TS 19.1075 -120.037 main 1025 997 P_____________ EP171994 19.1075 -120.037 HU 120 928 4 8 1
1994265N13251 1994 90 EP MM OLIVIA 1994-09-26 00:00:00 TS 19.5000 -120.000 115 932 hurdat_epa main 997 962 O_____________ hurdat_epa EP171994 19.5000 -120.000 HU 115 932 4 8 12
1994265N13251 1994 90 EP MM OLIVIA 1994-09-26 03:00:00 TS 19.9226 -119.858 main 962 919 P_____________ EP171994 19.9226 -119.858 HU 112 938 3 9 19
1994265N13251 1994 90 EP MM OLIVIA 1994-09-26 06:00:00 TS 20.3000 -119.700 110 945 hurdat_epa main 919 892 O_____________ hurdat_epa EP171994 20.3000 -119.700 HU 110 945 3 7 17
1994265N13251 1994 90 EP MM OLIVIA 1994-09-26 09:00:00 TS 20.5950 -119.642 main 892 879 P_____________ EP171994 20.5950 -119.642 HU 107 947 3 5 11
1994265N13251 1994 90 EP MM OLIVIA 1994-09-26 12:00:00 TS 20.8000 -119.600 105 950 hurdat_epa main 879 865 O_____________ hurdat_epa EP171994 20.8000 -119.600 HU 105 950 3 4 22
1994265N13251 1994 90 EP MM OLIVIA 1994-09-26 15:00:00 TS 20.9300 -119.500 main 865 850 P_____________ EP171994 20.9300 -119.500 HU 102 954 3 3 43
1994265N13251 1994 90 EP MM OLIVIA 1994-09-26 18:00:00 TS 21.0000 -119.400 100 958 hurdat_epa main 850 844 O_____________ hurdat_epa EP171994 21.0000 -119.400 HU 100 958 3 2 47
1994265N13251 1994 90 EP MM OLIVIA 1994-09-26 21:00:00 TS 21.0650 -119.350 main 835 835 P_____________ EP171994 21.0650 -119.350 HU 92 963 2 1 43
1994265N13251 1994 90 EP MM OLIVIA 1994-09-27 00:00:00 TS 21.1000 -119.300 85 968 hurdat_epa main 835 827 O_____________ hurdat_epa EP171994 21.1000 -119.300 HU 85 968 2 1 69
1994265N13251 1994 90 EP MM OLIVIA 1994-09-27 03:00:00 TS 21.1150 -119.215 main 827 818 P_____________ EP171994 21.1150 -119.215 HU 82 972 1 2 90
1994265N13251 1994 90 EP MM OLIVIA 1994-09-27 06:00:00 TS 21.1000 -119.100 80 976 hurdat_epa main 818 800 O_____________ hurdat_epa EP171994 21.1000 -119.100 HU 80 976 1 3 104
1994265N13251 1994 90 EP MM OLIVIA 1994-09-27 09:00:00 TS 21.0425 -118.897 main 806 797 P_____________ EP171994 21.0425 -118.897 HU 77 977 1 3 110
1994265N13251 1994 90 EP MM OLIVIA 1994-09-27 12:00:00 TS 21.0000 -118.800 75 978 hurdat_epa main 797 797 O_____________ hurdat_epa EP171994 21.0000 -118.800 HU 75 978 1 1 261
1994265N13251 1994 90 EP MM OLIVIA 1994-09-27 15:00:00 TS 21.0276 -118.998 main 815 815 P_____________ EP171994 21.0276 -118.998 HU 67 984 1 5 282
1994265N13251 1994 90 EP MM OLIVIA 1994-09-27 18:00:00 TS 21.1000 -119.300 60 991 hurdat_epa main 835 835 O_____________ hurdat_epa EP171994 21.1000 -119.300 TS 60 991 0 5 290
1994265N13251 1994 90 EP MM OLIVIA 1994-09-27 21:00:00 TS 21.1924 -119.493 main 846 843 P_____________ EP171994 21.1924 -119.493 TS 55 994 0 4 298
1994265N13251 1994 90 EP MM OLIVIA 1994-09-28 00:00:00 TS 21.3000 -119.700 50 997 hurdat_epa main 850 847 O_____________ hurdat_epa EP171994 21.3000 -119.700 TS 50 997 0 5 296
1994265N13251 1994 90 EP MM OLIVIA 1994-09-28 03:00:00 TS 21.4074 -119.963 main 860 859 P_____________ EP171994 21.4074 -119.963 TS 45 1000 0 6 290
1994265N13251 1994 90 EP MM OLIVIA 1994-09-28 06:00:00 TS 21.5000 -120.300 40 1003 hurdat_epa main 872 872 O_____________ hurdat_epa EP171994 21.5000 -120.300 TS 40 1003 0 7 281
1994265N13251 1994 90 EP MM OLIVIA 1994-09-28 09:00:00 TS 21.5500 -120.720 main 900 891 P_____________ EP171994 21.5500 -120.720 TS 35 1004 0 8 277
1994265N13251 1994 90 EP MM OLIVIA 1994-09-28 12:00:00 TS 21.6000 -121.200 30 1006 hurdat_epa main 925 925 O_____________ hurdat_epa EP171994 21.6000 -121.200 TD 30 1006 -1 9 279
1994265N13251 1994 90 EP MM OLIVIA 1994-09-28 15:00:00 TS 21.6926 -121.715 main 951 951 P_____________ EP171994 21.6926 -121.715 TD 30 1006 -1 10 282
1994265N13251 1994 90 EP MM OLIVIA 1994-09-28 18:00:00 TS 21.8000 -122.200 30 1007 hurdat_epa main 980 980 O_____________ hurdat_epa EP171994 21.8000 -122.200 TD 30 1007 -1 8 286
1994265N13251 1994 90 EP MM OLIVIA 1994-09-28 21:00:00 TS 21.9147 -122.565 main 1003 1003 P_____________ EP171994 21.9147 -122.565 TD 27 1007 -1 7 287
1994265N13251 1994 90 EP MM OLIVIA 1994-09-29 00:00:00 TS 22.0000 -122.900 25 1008 hurdat_epa main 1019 1019 O_____________ hurdat_epa EP171994 22.0000 -122.900 TD 25 1008 -1 7 278
1994265N13251 1994 90 EP MM OLIVIA 1994-09-29 03:00:00 TS 22.0076 -123.308 main 1051 1051 P_____________ EP171994 22.0076 -123.308 TD 25 1008 -1 7 270
1994265N13251 1994 90 EP MM OLIVIA 1994-09-29 06:00:00 TS 22.0000 -123.700 25 1008 hurdat_epa main 1083 1083 O_____________ hurdat_epa EP171994 22.0000 -123.700 TD 25 1008 -1 6 274
1994265N13251 1994 90 EP MM OLIVIA 1994-09-29 09:00:00 TS 22.0498 -124.000 main 1108 1101 P_____________ EP171994 22.0498 -124.000 TD 25 1008 -1 6 280
1994265N13251 1994 90 EP MM OLIVIA 1994-09-29 12:00:00 TS 22.1000 -124.300 25 1009 hurdat_epa main 1126 1126 O_____________ hurdat_epa EP171994 22.1000 -124.300 TD 25 1009 -1 6 276
1994265N13251 1994 90 EP MM OLIVIA 1994-09-29 15:00:00 TS 22.1128 -124.675 main 1160 1160 P_____________ EP171994 22.1128 -124.675 TD 22 1009 -1 7 270
1994265N13251 1994 90 EP MM OLIVIA 1994-09-29 18:00:00 TS 22.1000 -125.100 20 1010 hurdat_epa main 1194 O_____________ hurdat_epa EP171994 22.1000 -125.100 TD 20 1010 -1 8 268

About IBTrACS Database

This database is a web-friendly format of International Best Track Archive for Climate Stewardship (IBTrACS), a global best track data archive curated by NOAA dating back to 1842.

Updated: 2021-12-03